Gorredijk, Netherlands
Current Conditions -  °F | °C
As of 6:55 AM on Sunday 26 Oct 2014 (Local Time) from EHLW Reporting Station
Broken Clouds Broken Clouds  
Wind Chill: 52°   Ceiling: 26000
Heat Index: 52°   Visibility: 6mi
Dew Point: 50°   Wind: 10mph
Humidity: 94%   Direction: 210°SSW
Pressure: 30.12"   Gusts: NA
Location:  53.01°N, 6.06°E
Report Text: EHLW 260455Z AUTO 21009KT 9999 FEW030 BKN260 11/10 Q1020 BLU
Loading
Personal Weather Stations






























Interactive Weather Map
Tropical Storm Tracking
New forecast layout! Learn more

10-Day Weather Forecast

Advertisements
Track Severe Weather on mobile